createdAt,value
2017-08-24T00:00:30.505Z,1002.84
2017-08-24T00:01:31.932Z,1002.84
2017-08-24T00:02:33.366Z,1002.80
2017-08-24T00:03:34.792Z,1002.78
2017-08-24T00:04:36.217Z,1002.79
2017-08-24T00:05:37.652Z,1002.79
2017-08-24T00:06:39.069Z,1002.78
2017-08-24T00:07:40.499Z,1002.73
2017-08-24T00:08:41.938Z,1002.66
2017-08-24T00:09:43.362Z,1002.59
2017-08-24T00:10:44.785Z,1002.53
2017-08-24T00:11:46.213Z,1002.42
2017-08-24T00:12:47.650Z,1002.34
2017-08-24T00:13:49.071Z,1002.24
2017-08-24T00:14:50.490Z,1002.21
2017-08-24T00:15:51.916Z,1002.16
2017-08-24T00:16:53.351Z,1002.15
2017-08-24T00:17:55.585Z,1002.04
2017-08-24T00:18:57.011Z,1002.09
2017-08-24T00:19:58.441Z,1002.09
2017-08-24T00:20:59.885Z,1002.07
2017-08-24T00:22:01.300Z,1001.99
2017-08-24T00:23:02.725Z,1002.00
2017-08-24T00:24:04.157Z,1001.91
2017-08-24T00:25:05.590Z,1001.89
2017-08-24T00:26:07.013Z,1001.84
2017-08-24T00:27:08.444Z,1001.81
2017-08-24T00:28:09.875Z,1001.78
2017-08-24T00:29:11.298Z,1001.76
2017-08-24T00:30:12.722Z,1001.73
2017-08-24T00:31:14.151Z,1001.72
2017-08-24T00:32:15.580Z,1001.64
2017-08-24T00:33:17.006Z,1001.65
2017-08-24T00:34:18.434Z,1001.60
2017-08-24T00:35:19.862Z,1001.56
2017-08-24T00:36:21.285Z,1001.62
2017-08-24T00:37:22.717Z,1001.58
2017-08-24T00:38:24.146Z,1001.56
2017-08-24T00:39:25.572Z,1001.56
2017-08-24T00:40:26.996Z,1001.58
2017-08-24T00:41:28.423Z,1001.56
2017-08-24T00:42:29.857Z,1001.55
2017-08-24T00:43:31.276Z,1001.51
2017-08-24T00:44:32.701Z,1001.49
2017-08-24T00:45:34.131Z,1001.48
2017-08-24T00:46:35.561Z,1001.52
2017-08-24T00:47:36.987Z,1001.47
2017-08-24T00:48:38.410Z,1001.44
2017-08-24T00:49:39.838Z,1001.43
2017-08-24T00:50:41.268Z,1001.43
2017-08-24T00:51:42.699Z,1001.45
2017-08-24T00:52:44.132Z,1001.40
2017-08-24T00:53:45.558Z,1001.45
2017-08-24T00:54:46.983Z,1001.38
2017-08-24T00:55:48.408Z,1001.44
2017-08-24T00:56:49.833Z,1001.41
2017-08-24T00:57:51.266Z,1001.40
2017-08-24T00:58:52.696Z,1001.37
2017-08-24T00:59:54.120Z,1001.36
2017-08-24T01:00:55.549Z,1001.37
2017-08-24T01:01:56.980Z,1001.38
2017-08-24T01:02:58.406Z,1001.33
2017-08-24T01:03:59.832Z,1001.35
2017-08-24T01:05:01.302Z,1001.28
2017-08-24T01:06:02.739Z,1001.29
2017-08-24T01:07:04.169Z,1001.29
2017-08-24T01:08:05.610Z,1001.28
2017-08-24T01:09:07.040Z,1001.26
2017-08-24T01:10:08.473Z,1001.33
2017-08-24T01:11:09.897Z,1001.34
2017-08-24T01:12:11.333Z,1001.40
2017-08-24T01:13:12.772Z,1001.38
2017-08-24T01:14:14.201Z,1001.43
2017-08-24T01:15:15.628Z,1001.42
2017-08-24T01:16:17.064Z,1001.42
2017-08-24T01:17:18.493Z,1001.41
2017-08-24T01:18:19.921Z,1001.42
2017-08-24T01:19:21.359Z,1001.37
2017-08-24T01:20:22.783Z,1001.40
2017-08-24T01:21:24.211Z,1001.38
2017-08-24T01:22:25.641Z,1001.39
2017-08-24T01:23:27.068Z,1001.37
2017-08-24T01:24:28.489Z,1001.34
2017-08-24T01:25:29.919Z,1001.39
2017-08-24T01:26:31.333Z,1001.35
2017-08-24T01:27:32.759Z,1001.35
2017-08-24T01:28:34.185Z,1001.33
2017-08-24T01:29:35.618Z,1001.34
2017-08-24T01:30:37.041Z,1001.32
2017-08-24T01:31:38.486Z,1001.35
2017-08-24T01:32:39.911Z,1001.35
2017-08-24T01:33:41.343Z,1001.36
2017-08-24T01:34:42.778Z,1001.40
2017-08-24T01:35:44.206Z,1001.38
2017-08-24T01:36:45.629Z,1001.34
2017-08-24T01:37:47.062Z,1001.33
2017-08-24T01:38:48.488Z,1001.34
2017-08-24T01:39:49.918Z,1001.35
2017-08-24T01:40:51.344Z,1001.37
2017-08-24T01:41:52.768Z,1001.37
2017-08-24T01:42:54.197Z,1001.39
2017-08-24T01:43:55.633Z,1001.37
2017-08-24T01:44:57.058Z,1001.37
2017-08-24T01:45:58.491Z,1001.34
2017-08-24T01:46:59.921Z,1001.31
2017-08-24T01:48:01.347Z,1001.32
2017-08-24T01:49:02.776Z,1001.31
2017-08-24T01:50:04.206Z,1001.32
2017-08-24T01:51:05.639Z,1001.27
2017-08-24T01:52:07.067Z,1001.28
2017-08-24T01:53:08.501Z,1001.29
2017-08-24T01:54:09.925Z,1001.32
2017-08-24T01:55:11.358Z,1001.35
2017-08-24T01:56:12.785Z,1001.34
2017-08-24T01:57:14.225Z,1001.34
2017-08-24T01:58:15.648Z,1001.36
2017-08-24T01:59:17.077Z,1001.35
2017-08-24T02:00:18.513Z,1001.35
2017-08-24T02:01:19.943Z,1001.33
2017-08-24T02:02:21.371Z,1001.36
2017-08-24T02:03:22.796Z,1001.35
2017-08-24T02:04:24.226Z,1001.31
2017-08-24T02:05:25.658Z,1001.33
2017-08-24T02:06:27.081Z,1001.28
2017-08-24T02:07:28.507Z,1001.30
2017-08-24T02:08:29.935Z,1001.33
2017-08-24T02:09:31.358Z,1001.29
2017-08-24T02:10:32.789Z,1001.35
2017-08-24T02:11:34.214Z,1001.33
2017-08-24T02:12:35.646Z,1001.30
2017-08-24T02:13:37.069Z,1001.34
2017-08-24T02:14:38.495Z,1001.29
2017-08-24T02:15:39.919Z,1001.27
2017-08-24T02:16:41.361Z,1001.20
2017-08-24T02:17:42.787Z,1001.25
2017-08-24T02:18:44.210Z,1001.26
2017-08-24T02:19:45.730Z,1001.28
2017-08-24T02:20:47.152Z,1001.28
2017-08-24T02:21:48.577Z,1001.28
2017-08-24T02:22:49.998Z,1001.26
2017-08-24T02:23:51.521Z,1001.22
2017-08-24T02:24:52.950Z,1001.23
2017-08-24T02:25:54.382Z,1001.19
2017-08-24T02:26:55.814Z,1001.19
2017-08-24T02:27:57.238Z,1001.22
2017-08-24T02:28:58.663Z,1001.21
2017-08-24T02:30:00.093Z,1001.24
2017-08-24T02:31:01.600Z,1001.26
2017-08-24T02:32:03.016Z,1001.20
2017-08-24T02:33:04.448Z,1001.15
2017-08-24T02:34:05.878Z,1001.12
2017-08-24T02:35:07.358Z,1001.12
2017-08-24T02:36:08.789Z,1001.18
2017-08-24T02:37:10.210Z,1001.18
2017-08-24T02:38:11.674Z,1001.17
2017-08-24T02:39:13.101Z,1001.18
2017-08-24T02:40:14.527Z,1001.16
2017-08-24T02:41:15.953Z,1001.14
2017-08-24T02:42:17.389Z,1001.10
2017-08-24T02:43:18.828Z,1001.08
2017-08-24T02:44:21.431Z,1001.12
2017-08-24T02:45:22.865Z,1001.09
2017-08-24T02:46:24.295Z,1001.13
2017-08-24T02:47:25.733Z,1001.09
2017-08-24T02:48:27.173Z,1001.10
2017-08-24T02:49:28.614Z,1001.05
2017-08-24T02:50:30.040Z,1001.08
2017-08-24T02:51:31.469Z,1001.10
2017-08-24T02:52:32.882Z,1001.08
2017-08-24T02:53:34.331Z,1001.08
2017-08-24T02:54:35.749Z,1001.06
2017-08-24T02:55:37.266Z,1001.17
2017-08-24T02:56:38.689Z,1001.18
2017-08-24T02:57:40.129Z,1001.13
2017-08-24T02:58:41.555Z,1001.18
2017-08-24T02:59:42.984Z,1001.15
2017-08-24T03:00:44.414Z,1001.15
2017-08-24T03:01:45.929Z,1001.16
2017-08-24T03:02:47.344Z,1001.15
2017-08-24T03:03:48.774Z,1001.09
2017-08-24T03:04:50.203Z,1001.11
2017-08-24T03:05:51.684Z,1001.15
2017-08-24T03:06:53.130Z,1001.15
2017-08-24T03:07:54.560Z,1001.12
2017-08-24T03:08:56.003Z,1001.17
2017-08-24T03:09:57.438Z,1001.15
2017-08-24T03:10:58.866Z,1001.14
2017-08-24T03:12:00.293Z,1001.18
2017-08-24T03:13:01.719Z,1001.23
2017-08-24T03:14:03.164Z,1001.22
2017-08-24T03:15:04.577Z,1001.19
2017-08-24T03:16:06.010Z,1001.25
2017-08-24T03:17:07.441Z,1001.24
2017-08-24T03:18:08.872Z,1001.28
2017-08-24T03:19:10.314Z,1001.30
2017-08-24T03:20:11.741Z,1001.32
2017-08-24T03:21:13.164Z,1001.32
2017-08-24T03:22:14.595Z,1001.31
2017-08-24T03:23:16.020Z,1001.30
2017-08-24T03:24:17.445Z,1001.31
2017-08-24T03:25:18.875Z,1001.32
2017-08-24T03:26:20.301Z,1001.28
2017-08-24T03:27:21.729Z,1001.33
2017-08-24T03:28:23.159Z,1001.31
2017-08-24T03:29:24.585Z,1001.40
2017-08-24T03:30:26.768Z,1001.42
2017-08-24T03:31:28.189Z,1001.38
2017-08-24T03:32:29.613Z,1001.35
2017-08-24T03:33:31.039Z,1001.38
2017-08-24T03:34:32.463Z,1001.42
2017-08-24T03:35:33.898Z,1001.41
2017-08-24T03:36:35.318Z,1001.44
2017-08-24T03:37:36.745Z,1001.35
2017-08-24T03:38:38.189Z,1001.41
2017-08-24T03:39:39.598Z,1001.40
2017-08-24T03:40:41.023Z,1001.41
2017-08-24T03:41:42.450Z,1001.41
2017-08-24T03:42:43.878Z,1001.40
2017-08-24T03:43:45.333Z,1001.45
2017-08-24T03:44:46.753Z,1001.38
2017-08-24T03:45:48.179Z,1001.42
2017-08-24T03:46:49.611Z,1001.44
2017-08-24T03:47:51.040Z,1001.46
2017-08-24T03:48:53.276Z,1001.53
2017-08-24T03:49:54.707Z,1001.49
2017-08-24T03:50:56.146Z,1001.48
2017-08-24T03:51:57.569Z,1001.56
2017-08-24T03:52:58.998Z,1001.58
2017-08-24T03:54:00.431Z,1001.61
2017-08-24T03:55:01.867Z,1001.64
2017-08-24T03:56:03.298Z,1001.62
2017-08-24T03:57:05.683Z,1001.64
2017-08-24T03:58:07.116Z,1001.60
2017-08-24T03:59:08.543Z,1001.70
2017-08-24T04:00:09.974Z,1001.73
2017-08-24T04:01:11.399Z,1001.73
2017-08-24T04:02:12.824Z,1001.77
2017-08-24T04:03:14.254Z,1001.73
2017-08-24T04:04:15.682Z,1001.74
2017-08-24T04:05:17.110Z,1001.73
2017-08-24T04:06:18.547Z,1001.74
2017-08-24T04:07:19.975Z,1001.76
2017-08-24T04:08:21.407Z,1001.82
2017-08-24T04:09:22.835Z,1001.83
2017-08-24T04:10:24.270Z,1001.83
2017-08-24T04:11:25.694Z,1001.85
2017-08-24T04:12:27.926Z,1001.79
2017-08-24T04:13:29.376Z,1001.86
2017-08-24T04:14:30.797Z,1001.89
2017-08-24T04:15:32.227Z,1001.89
2017-08-24T04:16:33.646Z,1001.89
2017-08-24T04:17:35.075Z,1001.89
2017-08-24T04:18:36.521Z,1001.95
2017-08-24T04:19:37.934Z,1001.97
2017-08-24T04:20:39.363Z,1001.98
2017-08-24T04:21:40.782Z,1002.01
2017-08-24T04:22:42.218Z,1001.98
2017-08-24T04:23:43.646Z,1002.03
2017-08-24T04:24:45.072Z,1002.07
2017-08-24T04:25:46.502Z,1002.06
2017-08-24T04:26:47.925Z,1002.12
2017-08-24T04:27:49.350Z,1002.13
2017-08-24T04:28:50.778Z,1002.15
2017-08-24T04:29:52.201Z,1002.10
2017-08-24T04:30:53.629Z,1002.10
2017-08-24T04:31:55.063Z,1002.14
2017-08-24T04:32:56.491Z,1002.15
2017-08-24T04:33:57.925Z,1002.17
2017-08-24T04:34:59.355Z,1002.17
2017-08-24T04:36:00.788Z,1002.19
2017-08-24T04:37:02.215Z,1002.20
2017-08-24T04:38:03.642Z,1002.24
2017-08-24T04:39:05.070Z,1002.26
2017-08-24T04:40:06.508Z,1002.27
2017-08-24T04:41:07.943Z,1002.24
2017-08-24T04:42:09.387Z,1002.24
2017-08-24T04:43:10.817Z,1002.21
2017-08-24T04:44:12.249Z,1002.27
2017-08-24T04:45:13.683Z,1002.26
2017-08-24T04:46:15.111Z,1002.26
2017-08-24T04:47:16.549Z,1002.26
2017-08-24T04:48:17.983Z,1002.24
2017-08-24T04:49:19.422Z,1002.22
2017-08-24T04:50:20.850Z,1002.25
2017-08-24T04:51:22.273Z,1002.29
2017-08-24T04:52:23.695Z,1002.34
2017-08-24T04:53:25.122Z,1002.34
2017-08-24T04:54:26.548Z,1002.37
2017-08-24T04:55:27.975Z,1002.36
2017-08-24T04:56:29.397Z,1002.38
2017-08-24T04:57:30.840Z,1002.36
2017-08-24T04:58:32.267Z,1002.36
2017-08-24T04:59:33.702Z,1002.38
2017-08-24T05:00:35.129Z,1002.35
2017-08-24T05:01:36.558Z,1002.37
2017-08-24T05:02:37.983Z,1002.44
2017-08-24T05:03:39.418Z,1002.45
2017-08-24T05:04:40.844Z,1002.44
2017-08-24T05:05:42.270Z,1002.43
2017-08-24T05:06:43.699Z,1002.48
2017-08-24T05:07:45.130Z,1002.49
2017-08-24T05:08:46.555Z,1002.47
2017-08-24T05:09:47.983Z,1002.46
2017-08-24T05:10:49.403Z,1002.51
2017-08-24T05:11:50.835Z,1002.56
2017-08-24T05:12:52.264Z,1002.57
2017-08-24T05:13:53.687Z,1002.58
2017-08-24T05:14:55.115Z,1002.61
2017-08-24T05:15:56.547Z,1002.62
2017-08-24T05:16:57.967Z,1002.63
2017-08-24T05:17:59.400Z,1002.69
2017-08-24T05:19:00.829Z,1002.71
2017-08-24T05:20:02.253Z,1002.68
2017-08-24T05:21:03.686Z,1002.63
2017-08-24T05:22:05.113Z,1002.69
2017-08-24T05:23:06.546Z,1002.67
2017-08-24T05:24:07.968Z,1002.73
2017-08-24T05:25:09.398Z,1002.71
2017-08-24T05:26:10.826Z,1002.70
2017-08-24T05:27:12.254Z,1002.67
2017-08-24T05:28:13.689Z,1002.65
2017-08-24T05:29:15.114Z,1002.61
2017-08-24T05:30:16.542Z,1002.63
2017-08-24T05:31:17.965Z,1002.60
2017-08-24T05:32:19.397Z,1002.61
2017-08-24T05:33:20.827Z,1002.65
2017-08-24T05:34:22.256Z,1002.61
2017-08-24T05:35:23.687Z,1002.70
2017-08-24T05:36:25.123Z,1002.68
2017-08-24T05:37:26.556Z,1002.74
2017-08-24T05:38:27.982Z,1002.76
2017-08-24T05:39:29.420Z,1002.73
2017-08-24T05:40:30.859Z,1002.71
2017-08-24T05:41:32.283Z,1002.73
2017-08-24T05:42:33.703Z,1002.70
2017-08-24T05:43:35.131Z,1002.71
2017-08-24T05:44:36.562Z,1002.69
2017-08-24T05:45:37.990Z,1002.69
2017-08-24T05:46:39.422Z,1002.77
2017-08-24T05:47:40.852Z,1002.77
2017-08-24T05:48:42.284Z,1002.83
2017-08-24T05:49:43.715Z,1002.80
2017-08-24T05:50:45.145Z,1002.79
2017-08-24T05:51:46.573Z,1002.84
2017-08-24T05:52:48.007Z,1002.77
2017-08-24T05:53:49.442Z,1002.81
2017-08-24T05:54:50.873Z,1002.84
2017-08-24T05:55:52.302Z,1002.90
2017-08-24T05:56:53.736Z,1002.93
2017-08-24T05:57:55.176Z,1002.92
2017-08-24T05:58:56.596Z,1002.95
2017-08-24T05:59:58.020Z,1002.91
2017-08-24T06:00:59.446Z,1002.90
2017-08-24T06:02:00.876Z,1002.92
2017-08-24T06:03:02.307Z,1002.92
2017-08-24T06:04:03.733Z,1002.89
2017-08-24T06:05:05.167Z,1002.96
2017-08-24T06:06:06.597Z,1002.96
2017-08-24T06:07:08.018Z,1002.93
2017-08-24T06:08:09.447Z,1002.92
2017-08-24T06:09:10.873Z,1002.93
2017-08-24T06:10:12.302Z,1003.00
2017-08-24T06:11:13.733Z,1003.03
2017-08-24T06:12:15.160Z,1003.08
2017-08-24T06:13:16.588Z,1003.05
2017-08-24T06:14:18.025Z,1003.10
2017-08-24T06:15:19.452Z,1003.08
2017-08-24T06:16:20.893Z,1003.12
2017-08-24T06:17:22.331Z,1003.10
2017-08-24T06:18:23.759Z,1003.06
2017-08-24T06:19:25.178Z,1003.08
2017-08-24T06:20:26.617Z,1003.10
2017-08-24T06:21:28.039Z,1003.13
2017-08-24T06:22:29.468Z,1003.16
2017-08-24T06:23:30.896Z,1003.15
2017-08-24T06:24:32.326Z,1003.19
2017-08-24T06:25:33.752Z,1003.16
2017-08-24T06:26:35.179Z,1003.17
2017-08-24T06:27:36.611Z,1003.12
2017-08-24T06:28:38.044Z,1003.14
2017-08-24T06:29:39.471Z,1003.15
2017-08-24T06:30:40.902Z,1003.19
2017-08-24T06:31:42.326Z,1003.16
2017-08-24T06:32:43.749Z,1003.15
2017-08-24T06:33:45.181Z,1003.18
2017-08-24T06:34:46.607Z,1003.22
2017-08-24T06:35:48.033Z,1003.21
2017-08-24T06:36:49.467Z,1003.25
2017-08-24T06:37:50.895Z,1003.29
2017-08-24T06:38:52.323Z,1003.28
2017-08-24T06:39:53.756Z,1003.24
2017-08-24T06:40:55.187Z,1003.25
2017-08-24T06:41:56.616Z,1003.31
2017-08-24T06:42:58.052Z,1003.31
2017-08-24T06:43:59.475Z,1003.29
2017-08-24T06:45:00.903Z,1003.33
2017-08-24T06:46:02.330Z,1003.36
2017-08-24T06:47:03.762Z,1003.35
2017-08-24T06:48:05.193Z,1003.44
2017-08-24T06:49:06.621Z,1003.40
2017-08-24T06:50:08.054Z,1003.37
2017-08-24T06:51:09.482Z,1003.37
2017-08-24T06:52:10.912Z,1003.40
2017-08-24T06:53:12.338Z,1003.39
2017-08-24T06:54:13.770Z,1003.38
2017-08-24T06:55:15.209Z,1003.40
2017-08-24T06:56:16.640Z,1003.41
2017-08-24T06:57:18.071Z,1003.39
2017-08-24T06:58:19.503Z,1003.36
2017-08-24T06:59:20.941Z,1003.36
2017-08-24T07:00:22.373Z,1003.32
2017-08-24T07:01:23.801Z,1003.34
2017-08-24T07:02:25.290Z,1003.40
2017-08-24T07:03:26.710Z,1003.40
2017-08-24T07:04:28.142Z,1003.44
2017-08-24T07:05:29.574Z,1003.40
2017-08-24T07:06:31.015Z,1003.44
2017-08-24T07:07:32.443Z,1003.43
2017-08-24T07:08:33.922Z,1003.37
2017-08-24T07:09:35.363Z,1003.40
2017-08-24T07:10:36.794Z,1003.36
2017-08-24T07:11:38.238Z,1003.40
2017-08-24T07:12:39.673Z,1003.37
2017-08-24T07:13:41.104Z,1003.39
2017-08-24T07:14:42.533Z,1003.46
2017-08-24T07:15:43.968Z,1003.49
2017-08-24T07:16:45.398Z,1003.56
2017-08-24T07:17:46.832Z,1003.59
2017-08-24T07:18:48.263Z,1003.56
2017-08-24T07:19:49.693Z,1003.59
2017-08-24T07:20:51.120Z,1003.59
2017-08-24T07:21:52.552Z,1003.59
2017-08-24T07:22:53.982Z,1003.60
2017-08-24T07:23:55.414Z,1003.60
2017-08-24T07:24:56.839Z,1003.65
2017-08-24T07:25:58.271Z,1003.69
2017-08-24T07:26:59.701Z,1003.62
2017-08-24T07:28:01.141Z,1003.66
2017-08-24T07:29:02.564Z,1003.62
2017-08-24T07:30:03.988Z,1003.65
2017-08-24T07:31:05.416Z,1003.65
2017-08-24T07:32:06.842Z,1003.73
2017-08-24T07:33:08.273Z,1003.76
2017-08-24T07:34:09.717Z,1003.78
2017-08-24T07:35:11.141Z,1003.77
2017-08-24T07:36:12.571Z,1003.73
2017-08-24T07:37:14.002Z,1003.75
2017-08-24T07:38:15.426Z,1003.73
2017-08-24T07:39:16.881Z,1003.70
2017-08-24T07:40:18.302Z,1003.75
2017-08-24T07:41:19.739Z,1003.75
2017-08-24T07:42:21.162Z,1003.69
2017-08-24T07:43:22.596Z,1003.69
2017-08-24T07:44:24.034Z,1003.68
2017-08-24T07:45:25.464Z,1003.73
2017-08-24T07:46:26.886Z,1003.76
2017-08-24T07:47:28.314Z,1003.73
2017-08-24T07:48:29.744Z,1003.72
2017-08-24T07:49:31.184Z,1003.73
2017-08-24T07:50:32.612Z,1003.77
2017-08-24T07:51:34.049Z,1003.75
2017-08-24T07:52:35.478Z,1003.76
2017-08-24T07:53:36.907Z,1003.73
2017-08-24T07:54:38.338Z,1003.80
2017-08-24T07:55:39.782Z,1003.77
2017-08-24T07:56:41.208Z,1003.79
2017-08-24T07:57:42.653Z,1003.77
2017-08-24T07:58:44.083Z,1003.84
2017-08-24T07:59:45.511Z,1003.78
2017-08-24T08:00:46.944Z,1003.83
2017-08-24T08:01:48.374Z,1003.83
2017-08-24T08:02:49.816Z,1003.85
2017-08-24T08:03:51.245Z,1003.90
2017-08-24T08:04:52.674Z,1003.92
2017-08-24T08:05:54.100Z,1003.96
2017-08-24T08:06:55.535Z,1003.93
2017-08-24T08:07:56.974Z,1003.95
2017-08-24T08:08:58.399Z,1003.96
2017-08-24T08:09:59.834Z,1003.98
2017-08-24T08:11:01.273Z,1003.96
2017-08-24T08:12:02.705Z,1003.99
2017-08-24T08:13:04.130Z,1003.97
2017-08-24T08:14:05.565Z,1004.01
2017-08-24T08:15:06.995Z,1004.05
2017-08-24T08:16:08.429Z,1004.02
2017-08-24T08:17:09.851Z,1003.91
2017-08-24T08:18:11.276Z,1003.95
2017-08-24T08:19:12.710Z,1004.00
2017-08-24T08:20:14.142Z,1004.09
2017-08-24T08:21:15.571Z,1004.05
2017-08-24T08:22:17.010Z,1004.06
2017-08-24T08:23:18.443Z,1004.05
2017-08-24T08:24:19.877Z,1004.11
2017-08-24T08:25:21.313Z,1004.10
2017-08-24T08:26:22.748Z,1004.26
2017-08-24T08:27:24.183Z,1004.15
2017-08-24T08:28:25.618Z,1004.21
2017-08-24T08:29:27.049Z,1004.34
2017-08-24T08:30:28.479Z,1004.32
2017-08-24T08:31:29.955Z,1004.39
2017-08-24T08:32:31.391Z,1004.32
2017-08-24T08:33:32.833Z,1004.42
2017-08-24T08:34:34.277Z,1004.34
2017-08-24T08:35:35.788Z,1004.22
2017-08-24T08:36:37.221Z,1004.37
2017-08-24T08:37:38.658Z,1004.45
2017-08-24T08:38:40.094Z,1004.40
2017-08-24T08:39:41.605Z,1004.30
2017-08-24T08:40:43.036Z,1004.37
2017-08-24T08:41:44.471Z,1004.60
2017-08-24T08:42:45.898Z,1004.47
2017-08-24T08:43:47.320Z,1004.42
2017-08-24T08:44:49.619Z,1004.47
2017-08-24T08:45:51.092Z,1004.71
2017-08-24T08:46:52.527Z,1004.76
2017-08-24T08:47:53.996Z,1004.92
2017-08-24T08:48:55.434Z,1004.90
2017-08-24T08:49:56.867Z,1004.91
2017-08-24T08:50:58.312Z,1004.96
2017-08-24T08:51:59.751Z,1005.00
2017-08-24T08:53:01.187Z,1004.89
2017-08-24T08:54:02.613Z,1004.95
2017-08-24T08:55:04.048Z,1004.92
2017-08-24T08:56:05.497Z,1004.95
2017-08-24T08:57:06.929Z,1004.91
2017-08-24T08:58:08.353Z,1004.84
2017-08-24T08:59:09.790Z,1004.98
2017-08-24T09:00:11.223Z,1004.90
2017-08-24T09:01:12.643Z,1004.91
2017-08-24T09:02:14.069Z,1004.87
2017-08-24T09:03:15.500Z,1004.91
2017-08-24T09:04:16.924Z,1005.04
2017-08-24T09:05:18.356Z,1004.69
2017-08-24T09:06:19.784Z,1004.94
2017-08-24T09:07:21.227Z,1004.93
2017-08-24T09:08:23.306Z,1005.11
2017-08-24T09:09:24.737Z,1005.20
2017-08-24T09:10:26.168Z,1005.17
2017-08-24T09:11:27.595Z,1005.29
2017-08-24T09:12:29.020Z,1005.30
2017-08-24T09:13:30.451Z,1005.22
2017-08-24T09:14:31.887Z,1005.24
2017-08-24T09:15:33.315Z,1005.27
2017-08-24T09:16:34.741Z,1005.26
2017-08-24T09:17:36.167Z,1005.21
2017-08-24T09:18:37.591Z,1005.26
2017-08-24T09:19:39.024Z,1005.33
2017-08-24T09:20:40.465Z,1005.28
2017-08-24T09:21:41.894Z,1005.34
2017-08-24T09:22:43.332Z,1005.38
2017-08-24T09:23:44.770Z,1005.46
2017-08-24T09:24:46.207Z,1005.37
2017-08-24T09:25:47.635Z,1005.31
2017-08-24T09:26:49.072Z,1005.40
2017-08-24T09:27:50.498Z,1005.39
2017-08-24T09:28:51.913Z,1005.42
2017-08-24T09:29:53.348Z,1005.46
2017-08-24T09:30:54.789Z,1005.51
2017-08-24T09:31:56.222Z,1005.43
2017-08-24T09:32:57.654Z,1005.34
2017-08-24T09:33:59.100Z,1005.29
2017-08-24T09:35:00.532Z,1005.36
2017-08-24T09:36:01.964Z,1005.40
2017-08-24T09:37:03.409Z,1005.41
2017-08-24T09:38:04.843Z,1005.42
2017-08-24T09:39:06.275Z,1005.44
2017-08-24T09:40:07.712Z,1005.42
2017-08-24T09:41:09.139Z,1005.31
2017-08-24T09:42:10.563Z,1005.34
2017-08-24T09:43:11.998Z,1005.37
2017-08-24T09:44:13.431Z,1005.37
2017-08-24T09:45:14.861Z,1005.44
2017-08-24T09:46:16.298Z,1005.39
2017-08-24T09:47:17.766Z,1005.39
2017-08-24T09:48:19.204Z,1005.41
2017-08-24T09:49:20.646Z,1005.51
2017-08-24T09:50:22.085Z,1005.48
2017-08-24T09:51:23.519Z,1005.59
2017-08-24T09:52:24.944Z,1005.54
2017-08-24T09:53:26.391Z,1005.46
2017-08-24T09:54:27.827Z,1005.49
2017-08-24T09:55:29.330Z,1005.46
2017-08-24T09:56:30.773Z,1005.51
2017-08-24T09:57:32.204Z,1005.53
2017-08-24T09:58:33.644Z,1005.48
2017-08-24T09:59:35.074Z,1005.52
2017-08-24T10:00:36.508Z,1005.56
2017-08-24T10:01:37.990Z,1005.56
2017-08-24T10:02:40.291Z,1005.62
2017-08-24T10:03:41.721Z,1005.61
2017-08-24T10:04:43.154Z,1005.62
2017-08-24T10:05:44.586Z,1005.60
2017-08-24T10:06:46.014Z,1005.67
2017-08-24T10:07:47.444Z,1005.62
2017-08-24T10:08:48.870Z,1005.70
2017-08-24T10:09:50.298Z,1005.74
2017-08-24T10:10:51.725Z,1005.70
2017-08-24T10:11:53.158Z,1005.69
2017-08-24T10:12:54.586Z,1005.64
2017-08-24T10:13:56.016Z,1005.76
2017-08-24T10:14:57.450Z,1005.72
2017-08-24T10:15:58.881Z,1005.74
2017-08-24T10:17:00.308Z,1005.73
2017-08-24T10:18:01.730Z,1005.73
2017-08-24T10:19:03.157Z,1005.73
2017-08-24T10:20:04.591Z,1005.73
2017-08-24T10:21:06.021Z,1005.73
2017-08-24T10:22:07.453Z,1005.70
2017-08-24T10:23:08.880Z,1005.66
2017-08-24T10:24:10.317Z,1005.65
2017-08-24T10:25:11.750Z,1005.68
2017-08-24T10:26:13.196Z,1005.70
2017-08-24T10:27:14.622Z,1005.70
2017-08-24T10:28:16.051Z,1005.73
2017-08-24T10:29:17.508Z,1005.73
2017-08-24T10:30:18.974Z,1005.74
2017-08-24T10:31:20.376Z,1005.69
2017-08-24T10:32:21.725Z,1005.64
2017-08-24T10:33:23.159Z,1005.74
2017-08-24T10:34:24.585Z,1005.76
2017-08-24T10:35:26.033Z,1005.82
2017-08-24T10:36:27.468Z,1005.81
2017-08-24T10:37:28.896Z,1005.86
2017-08-24T10:38:30.326Z,1005.81
2017-08-24T10:39:31.764Z,1005.85
2017-08-24T10:40:33.191Z,1005.81
2017-08-24T10:41:34.619Z,1005.87
2017-08-24T10:42:36.056Z,1005.84
2017-08-24T10:43:37.491Z,1005.90
2017-08-24T10:44:38.916Z,1005.90
2017-08-24T10:45:40.346Z,1005.91
2017-08-24T10:46:41.782Z,1005.99
2017-08-24T10:47:43.209Z,1006.01
2017-08-24T10:48:44.643Z,1006.01
2017-08-24T10:49:46.086Z,1005.99
2017-08-24T10:50:47.518Z,1005.98
2017-08-24T10:51:48.956Z,1005.90
2017-08-24T10:52:50.386Z,1005.87
2017-08-24T10:53:51.825Z,1005.91
2017-08-24T10:54:53.269Z,1005.89
2017-08-24T10:55:54.705Z,1005.98
2017-08-24T10:56:56.136Z,1005.99
2017-08-24T10:57:57.564Z,1005.97
2017-08-24T10:58:59.008Z,1005.90
2017-08-24T11:00:00.434Z,1005.91
2017-08-24T11:01:01.867Z,1005.83
2017-08-24T11:02:03.310Z,1005.87
2017-08-24T11:03:04.745Z,1005.82
2017-08-24T11:04:06.178Z,1005.97
2017-08-24T11:05:07.614Z,1006.00
2017-08-24T11:06:09.044Z,1005.96
2017-08-24T11:07:10.470Z,1005.95
2017-08-24T11:08:11.920Z,1005.97
2017-08-24T11:09:13.353Z,1006.03
2017-08-24T11:10:14.782Z,1006.02
2017-08-24T11:11:16.216Z,1006.01
2017-08-24T11:12:17.690Z,1006.02
2017-08-24T11:13:19.113Z,1006.01
2017-08-24T11:14:20.550Z,1006.03
2017-08-24T11:15:21.993Z,1006.14
2017-08-24T11:16:23.455Z,1006.12
2017-08-24T11:17:24.904Z,1006.06
2017-08-24T11:18:26.337Z,1006.14
2017-08-24T11:19:27.766Z,1006.15
2017-08-24T11:20:29.200Z,1006.13
2017-08-24T11:21:30.635Z,1006.12
2017-08-24T11:22:32.071Z,1006.05
2017-08-24T11:23:34.394Z,1006.14
2017-08-24T11:24:35.845Z,1006.13
2017-08-24T11:25:37.323Z,1006.22
2017-08-24T11:26:38.747Z,1006.21
2017-08-24T11:27:40.174Z,1006.25
2017-08-24T11:28:41.715Z,1006.20
2017-08-24T11:29:43.146Z,1006.30
2017-08-24T11:30:44.593Z,1006.27
2017-08-24T11:31:46.031Z,1006.32
2017-08-24T11:32:47.527Z,1006.37
2017-08-24T11:33:48.967Z,1006.35
2017-08-24T11:34:50.396Z,1006.37
2017-08-24T11:35:51.859Z,1006.30
2017-08-24T11:36:53.337Z,1006.24
2017-08-24T11:37:54.770Z,1006.30
2017-08-24T11:38:56.195Z,1006.34
2017-08-24T11:39:57.637Z,1006.24
2017-08-24T11:40:59.063Z,1006.27
2017-08-24T11:42:00.496Z,1006.24
2017-08-24T11:43:01.928Z,1006.25
2017-08-24T11:44:03.369Z,1006.24
2017-08-24T11:45:04.802Z,1006.32
2017-08-24T11:46:06.236Z,1006.26
2017-08-24T11:47:07.673Z,1006.35
2017-08-24T11:48:09.113Z,1006.38
2017-08-24T11:49:10.539Z,1006.39
2017-08-24T11:50:11.973Z,1006.38
2017-08-24T11:51:13.515Z,1006.38
2017-08-24T11:52:15.802Z,1006.42
2017-08-24T11:53:17.244Z,1006.37
2017-08-24T11:54:18.667Z,1006.31
2017-08-24T11:55:20.109Z,1006.31
2017-08-24T11:56:21.545Z,1006.31
2017-08-24T11:57:22.982Z,1006.32
2017-08-24T11:58:24.412Z,1006.34
2017-08-24T11:59:25.849Z,1006.32
2017-08-24T12:00:27.291Z,1006.34
2017-08-24T12:01:28.727Z,1006.31
2017-08-24T12:02:30.153Z,1006.32
2017-08-24T12:03:31.584Z,1006.34
2017-08-24T12:04:33.016Z,1006.33
2017-08-24T12:05:34.449Z,1006.34
2017-08-24T12:06:35.873Z,1006.35
2017-08-24T12:07:37.304Z,1006.35
2017-08-24T12:08:38.732Z,1006.38
2017-08-24T12:09:40.164Z,1006.33
2017-08-24T12:10:41.598Z,1006.31
2017-08-24T12:11:43.023Z,1006.27
2017-08-24T12:12:44.465Z,1006.33
2017-08-24T12:13:45.908Z,1006.40
2017-08-24T12:14:47.371Z,1006.42
2017-08-24T12:15:48.794Z,1006.44
2017-08-24T12:16:50.236Z,1006.45
2017-08-24T12:17:51.669Z,1006.41
2017-08-24T12:18:53.105Z,1006.42
2017-08-24T12:19:54.539Z,1006.34
2017-08-24T12:20:55.970Z,1006.43
2017-08-24T12:21:57.394Z,1006.52
2017-08-24T12:22:58.820Z,1006.49